Time;durP1;ratioP1;P1;durP2;ratioP2;P2;SDS_P1;SDS_P2;PMS_P1;PMS_P2;Temp;Humidity;BMP_temperature;BMP_pressure;BME280_temperature;BME280_humidity;BME280_pressure;Samples;Min_cycle;Max_cycle;Signal;HPM_P1;HPM_P2
2022/11/15 00:00:59;;;;;;;11.50;7.45;;;;;;;15.88;100.00;101596.09;2095798;28;20048;-73
2022/11/15 00:02:39;;;;;;;13.55;7.70;;;;;;;15.88;100.00;101592.56;2095795;28;20048;-73
2022/11/15 00:04:20;;;;;;;12.77;7.35;;;;;;;15.87;100.00;101585.44;2095613;28;20080;-72
2022/11/15 00:06:03;;;;;;;11.45;5.93;;;;;;;15.89;100.00;101594.31;2095810;28;20049;-73
2022/11/15 00:07:44;;;;;;;13.85;7.35;;;;;;;15.90;100.00;101586.34;2095589;28;20599;-72
2022/11/15 00:09:27;;;;;;;16.85;7.68;;;;;;;15.90;100.00;101589.00;2103951;28;20051;-72
2022/11/15 00:11:11;;;;;;;18.85;7.55;;;;;;;15.91;100.00;101593.47;2095519;28;20053;-73
2022/11/15 00:12:52;;;;;;;12.60;7.13;;;;;;;15.96;100.00;101590.81;2108132;28;20141;-73
2022/11/15 00:14:32;;;;;;;12.07;7.18;;;;;;;15.98;100.00;101589.06;2104324;28;20048;-72
2022/11/15 00:16:14;;;;;;;16.08;8.18;;;;;;;15.97;100.00;101589.03;2112294;28;20714;-72
2022/11/15 00:17:54;;;;;;;11.77;6.80;;;;;;;16.00;100.00;101586.41;2112277;28;20052;-73
2022/11/15 00:19:35;;;;;;;15.35;7.15;;;;;;;16.02;100.00;101587.28;2112456;28;20043;-72
2022/11/15 00:21:17;;;;;;;11.82;6.82;;;;;;;16.00;100.00;101586.41;2112669;28;20075;-72
2022/11/15 00:22:58;;;;;;;14.75;7.40;;;;;;;15.97;100.00;101584.63;2112667;28;20044;-72
2022/11/15 00:24:40;;;;;;;12.55;7.03;;;;;;;15.97;100.00;101586.38;2112399;28;20047;-72
2022/11/15 00:26:21;;;;;;;10.77;5.57;;;;;;;15.92;100.00;101586.38;2110253;28;20036;-73
2022/11/15 00:28:02;;;;;;;9.80;6.07;;;;;;;15.91;100.00;101590.78;2112398;28;20051;-73
2022/11/15 00:29:43;;;;;;;11.73;5.85;;;;;;;15.92;100.00;101586.38;2112689;28;20105;-73
2022/11/15 00:31:24;;;;;;;11.23;6.85;;;;;;;15.94;100.00;101580.19;2112327;28;20043;-72
2022/11/15 00:33:05;;;;;;;14.77;7.05;;;;;;;15.97;100.00;101581.06;2114548;28;20139;-73
2022/11/15 00:34:46;;;;;;;14.05;6.43;;;;;;;15.97;100.00;101581.06;2114275;28;20058;-72
2022/11/15 00:36:26;;;;;;;11.65;6.40;;;;;;;15.97;100.00;101584.63;2114126;28;20121;-72
2022/11/15 00:38:07;;;;;;;12.43;5.88;;;;;;;15.98;100.00;101580.19;2113038;28;20556;-72
2022/11/15 00:39:49;;;;;;;13.23;6.22;;;;;;;16.00;100.00;101570.44;2114316;28;20081;-73
2022/11/15 00:41:30;;;;;;;12.60;6.70;;;;;;;16.03;100.00;101573.09;2114265;28;20134;-72
2022/11/15 00:43:11;;;;;;;15.52;6.88;;;;;;;16.07;100.00;101574.94;2114030;28;20050;-72
2022/11/15 00:44:52;;;;;;;13.63;6.72;;;;;;;16.08;100.00;101574.06;2114172;28;20047;-72
2022/11/15 00:46:33;;;;;;;12.40;6.28;;;;;;;16.09;100.00;101573.13;2105827;28;20044;-72
2022/11/15 00:48:14;;;;;;;12.88;5.80;;;;;;;16.12;100.00;101568.75;2105861;28;20056;-72
2022/11/15 00:49:55;;;;;;;11.18;5.65;;;;;;;16.15;100.00;101562.50;2114153;28;20048;-72
2022/11/15 00:51:36;;;;;;;15.38;6.45;;;;;;;16.14;100.00;101569.66;2111781;28;20039;-72
2022/11/15 00:53:17;;;;;;;12.93;5.93;;;;;;;16.12;100.00;101568.75;2105341;28;20068;-72
2022/11/15 00:55:00;;;;;;;14.25;5.57;;;;;;;16.11;100.00;101569.63;2105466;28;20051;-72
2022/11/15 00:56:41;;;;;;;12.27;5.97;;;;;;;16.11;100.00;101556.28;2114204;28;20041;-72
2022/11/15 00:58:22;;;;;;;14.32;6.22;;;;;;;16.11;100.00;101553.63;2097318;28;20427;-72
2022/11/15 01:00:03;;;;;;;11.10;6.10;;;;;;;16.13;100.00;101559.88;2104639;28;20048;-72
2022/11/15 01:01:44;;;;;;;9.77;5.35;;;;;;;16.15;100.00;101549.19;2096939;28;20179;-72
2022/11/15 01:03:25;;;;;;;11.57;5.75;;;;;;;16.18;100.00;101559.88;2097005;28;20048;-72
2022/11/15 01:05:07;;;;;;;13.32;6.07;;;;;;;16.20;100.00;101553.69;2097173;28;20077;-72
2022/11/15 01:06:48;;;;;;;15.13;6.43;;;;;;;16.20;100.00;101553.69;2105501;28;20532;-72
2022/11/15 01:08:28;;;;;;;11.60;6.00;;;;;;;16.19;100.00;101553.69;2097315;28;20140;-72
2022/11/15 01:10:11;;;;;;;11.60;5.93;;;;;;;16.18;100.00;101543.91;2106462;28;20058;-72
2022/11/15 01:11:53;;;;;;;10.98;5.70;;;;;;;16.16;100.00;101546.53;2105047;28;20101;-72
2022/11/15 01:13:37;;;;;;;14.70;5.97;;;;;;;16.15;100.00;101546.53;2104723;28;20078;-72
2022/11/15 01:15:19;;;;;;;8.75;5.18;;;;;;;16.08;100.00;101553.59;2103330;28;20519;-72
2022/11/15 01:17:00;;;;;;;11.27;6.03;;;;;;;16.02;100.00;101548.25;2105431;28;20449;-72
2022/11/15 01:18:42;;;;;;;12.13;5.32;;;;;;;16.00;100.00;101543.81;2105051;28;20738;-72
2022/11/15 01:20:23;;;;;;;15.45;6.20;;;;;;;16.00;100.00;101550.03;2105129;28;20575;-72
2022/11/15 01:22:04;;;;;;;13.40;6.07;;;;;;;16.01;100.00;101545.59;2097067;28;20056;-72
2022/11/15 01:23:45;;;;;;;15.27;6.28;;;;;;;15.98;100.00;101551.78;2096581;28;20721;-72
2022/11/15 01:25:28;;;;;;;10.43;6.35;;;;;;;15.94;100.00;101552.66;2096983;28;20055;-72
2022/11/15 01:27:10;;;;;;;11.05;6.57;;;;;;;15.90;100.00;101557.06;2105466;28;20052;-71
2022/11/15 01:28:51;;;;;;;12.43;6.47;;;;;;;15.89;100.00;101549.03;2104189;28;20048;-72
2022/11/15 01:30:32;;;;;;;10.43;6.07;;;;;;;15.85;100.00;101556.13;2112104;28;20312;-72
2022/11/15 01:32:13;;;;;;;12.90;6.90;;;;;;;15.81;100.00;101554.34;2105578;28;20059;-72
2022/11/15 01:33:53;;;;;;;10.00;6.20;;;;;;;15.77;100.00;101551.63;2105462;28;20432;-72
2022/11/15 01:35:34;;;;;;;11.77;6.43;;;;;;;15.72;100.00;101543.63;2105111;28;20366;-72
2022/11/15 01:37:15;;;;;;;11.68;5.80;;;;;;;15.69;100.00;101542.69;2105323;28;20048;-72
2022/11/15 01:38:58;;;;;;;12.32;6.60;;;;;;;15.65;100.00;101538.22;2113681;28;20044;-72
2022/11/15 01:40:41;;;;;;;15.13;6.65;;;;;;;15.60;100.00;101538.22;2096883;28;20044;-72
2022/11/15 01:42:21;;;;;;;13.25;7.13;;;;;;;15.53;100.00;101534.63;2113192;28;20047;-72
2022/11/15 01:44:41;;;;;;;8.65;5.57;;;;;;;15.48;100.00;101533.66;2105196;28;20048;-72
2022/11/15 01:46:30;;;;;;;12.55;7.55;;;;;;;15.46;100.00;101539.84;2103365;28;20054;-72
2022/11/15 01:48:12;;;;;;;14.02;7.28;;;;;;;15.46;100.00;101535.41;2105272;28;20191;-72
2022/11/15 01:49:58;;;;;;;10.40;6.32;;;;;;;15.51;100.00;101538.09;2105034;28;20060;-72
2022/11/15 01:51:40;;;;;;;15.52;7.03;;;;;;;15.60;100.00;101537.31;2105175;28;20076;-72
2022/11/15 01:53:24;;;;;;;12.93;7.20;;;;;;;15.68;100.00;101531.19;2105334;28;20054;-73
2022/11/15 01:55:08;;;;;;;12.20;6.70;;;;;;;15.75;100.00;101532.97;2105316;28;20054;-72
2022/11/15 01:56:54;;;;;;;12.80;7.63;;;;;;;15.82;100.00;101528.59;2097730;28;20118;-73
2022/11/15 01:58:37;;;;;;;12.35;7.18;;;;;;;15.84;100.00;101527.72;2113454;28;20051;-72
2022/11/15 02:00:18;;;;;;;12.18;6.75;;;;;;;15.85;100.00;101529.50;2104659;28;20045;-72
2022/11/15 02:02:00;;;;;;;9.75;6.30;;;;;;;15.87;100.00;101532.19;2104879;28;20070;-72
2022/11/15 02:03:47;;;;;;;13.25;7.45;;;;;;;15.83;100.00;101528.59;2105021;28;20614;-73
2022/11/15 02:05:28;;;;;;;12.85;6.82;;;;;;;15.79;100.00;101534.78;2105206;28;20046;-72
2022/11/15 02:07:12;;;;;;;15.88;6.40;;;;;;;15.74;100.00;101525.91;2106704;28;20138;-73
2022/11/15 02:08:53;;;;;;;10.68;6.50;;;;;;;15.73;100.00;101521.44;2096591;28;20532;-72
2022/11/15 02:10:34;;;;;;;11.88;6.68;;;;;;;15.77;100.00;101525.91;2096669;28;20068;-72
2022/11/15 02:12:20;;;;;;;12.38;6.20;;;;;;;15.77;100.00;101533.88;2096819;28;20079;-72
2022/11/15 02:14:02;;;;;;;22.23;6.40;;;;;;;15.80;100.00;101525.03;2096881;28;20053;-72
2022/11/15 02:15:47;;;;;;;;;;;;;;;15.73;100.00;101531.19;2103009;28;20040;-72
2022/11/15 02:17:43;;;;;;;12.57;6.70;;;;;;;15.68;100.00;101525.84;2112534;28;19927;-72
2022/11/15 02:19:47;;;;;;;10.57;5.57;;;;;;;15.59;100.00;101525.78;2113274;28;20048;-72
2022/11/15 02:21:38;;;;;;;13.88;5.85;;;;;;;15.53;100.00;101531.94;2104871;28;20044;-71
2022/11/15 02:23:58;;;;;;;12.23;5.95;;;;;;;15.46;100.00;101531.84;2105177;28;20080;-72
2022/11/15 02:25:42;;;;;;;13.00;6.18;;;;;;;15.38;100.00;101531.78;2100234;28;20500;-72
2022/11/15 02:27:53;;;;;;;12.15;6.05;;;;;;;15.33;100.00;101527.31;2104918;28;20062;-72
2022/11/15 02:30:01;;;;;;;13.25;6.47;;;;;;;15.26;100.00;101526.38;2104904;28;20043;-73
2022/11/15 02:31:52;;;;;;;8.63;5.30;;;;;;;15.23;100.00;101530.78;2104641;28;20090;-72
2022/11/15 02:33:41;;;;;;;11.63;6.03;;;;;;;15.21;100.00;101537.84;2104741;28;20165;-72
2022/11/15 02:35:31;;;;;;;10.73;5.43;;;;;;;15.17;100.00;101542.22;2104604;28;20070;-72
2022/11/15 02:37:18;;;;;;;12.63;5.45;;;;;;;15.13;100.00;101528.03;2104749;28;20420;-73
2022/11/15 02:39:04;;;;;;;10.95;5.43;;;;;;;15.12;100.00;101535.97;2113270;28;20179;-72
2022/11/15 02:40:55;;;;;;;10.43;5.70;;;;;;;15.11;100.00;101537.75;2104983;28;20612;-71
2022/11/15 02:44:41;;;;;;;;;;;;;;;15.03;100.00;101528.78;2105020;28;20087;-72
2022/11/15 02:48:27;;;;;;;9.43;5.15;;;;;;;15.06;100.00;101528.84;2104647;28;20044;-72
2022/11/15 02:50:11;;;;;;;10.75;4.85;;;;;;;15.06;99.61;101530.59;2096454;28;20044;-72
2022/11/15 02:51:53;;;;;;;12.52;5.32;;;;;;;15.04;98.95;101521.72;2096253;28;20052;-72
2022/11/15 02:53:34;;;;;;;11.38;5.72;;;;;;;15.03;98.82;101522.63;2096374;28;20067;-73
2022/11/15 02:55:29;;;;;;;11.70;5.30;;;;;;;15.02;98.56;101521.72;2096225;28;20773;-72
2022/11/15 02:57:17;;;;;;;12.38;4.80;;;;;;;15.07;98.31;101522.66;2110130;28;20155;-72
2022/11/15 02:59:25;;;;;;;11.32;5.65;;;;;;;15.20;97.23;101514.78;2104455;28;20044;-72
2022/11/15 03:01:13;;;;;;;14.68;4.97;;;;;;;15.32;96.47;101522.84;2113058;28;20047;-72
2022/11/15 03:03:13;;;;;;;9.45;5.18;;;;;;;15.43;95.50;101519.41;2104709;28;20060;-73
2022/11/15 03:04:58;;;;;;;9.48;4.53;;;;;;;15.50;94.99;101513.25;2104804;28;20048;-73
2022/11/15 03:06:50;;;;;;;8.38;4.65;;;;;;;15.57;94.70;101519.53;2104586;28;20052;-73
2022/11/15 03:08:34;;;;;;;9.00;4.63;;;;;;;15.57;95.21;101521.31;2104033;28;20088;-73
2022/11/15 03:10:22;;;;;;;8.40;4.90;;;;;;;15.51;96.32;101524.78;2104853;28;20142;-72
2022/11/15 03:12:10;;;;;;;12.77;5.15;;;;;;;15.42;97.85;101520.31;2104668;28;20749;-72
2022/11/15 03:13:58;;;;;;;11.18;5.32;;;;;;;15.33;99.28;101527.31;2095857;28;20385;-72
2022/11/15 03:15:45;;;;;;;11.43;5.38;;;;;;;15.25;100.00;101521.03;2101027;28;20052;-72
2022/11/15 03:17:30;;;;;;;12.30;4.65;;;;;;;15.20;100.00;101525.41;2104416;28;20051;-72
2022/11/15 03:19:15;;;;;;;8.85;5.03;;;;;;;15.19;100.00;101526.28;2096276;28;20052;-72
2022/11/15 03:21:00;;;;;;;10.68;4.93;;;;;;;15.19;100.00;101515.66;2103369;28;20080;-73
2022/11/15 03:22:45;;;;;;;13.43;5.20;;;;;;;15.18;100.00;101521.84;2104646;28;20048;-72
2022/11/15 03:24:29;;;;;;;12.77;5.60;;;;;;;15.17;99.93;101520.94;2104396;28;20602;-73
2022/11/15 03:26:12;;;;;;;10.02;5.45;;;;;;;15.19;99.72;101518.31;2095940;28;20049;-73
2022/11/15 03:27:57;;;;;;;9.50;4.82;;;;;;;15.23;99.10;101514.81;2095871;28;20048;-72
2022/11/15 03:29:41;;;;;;;11.48;5.35;;;;;;;15.25;98.62;101523.69;2096303;28;20048;-72
2022/11/15 03:33:23;;;;;;;11.18;5.82;;;;;;;15.17;98.65;101512.97;2095997;28;20045;-72
2022/11/15 03:35:09;;;;;;;10.48;5.82;;;;;;;15.12;98.95;101515.59;2104218;28;20056;-72
2022/11/15 03:36:53;;;;;;;12.15;6.20;;;;;;;15.06;99.62;101520.88;2096046;28;20052;-72
2022/11/15 03:38:36;;;;;;;13.48;8.40;;;;;;;15.00;100.00;101520.81;2095853;28;20041;-72
2022/11/15 03:40:18;;;;;;;14.23;7.85;;;;;;;14.97;100.00;101518.09;2095921;28;20061;-72
2022/11/15 03:42:09;;;;;;;11.20;7.80;;;;;;;14.95;100.00;101519.00;2096723;28;20052;-73
2022/11/15 03:43:56;;;;;;;11.00;6.38;;;;;;;14.94;100.00;101523.41;2104182;28;20048;-72
2022/11/15 03:45:43;;;;;;;17.52;6.30;;;;;;;14.99;100.00;101516.38;2103317;28;20090;-72
2022/11/15 03:47:30;;;;;;;10.30;6.00;;;;;;;15.06;100.00;101523.53;2096134;28;20135;-72
2022/11/15 03:49:15;;;;;;;10.13;5.63;;;;;;;15.12;100.00;101514.72;2104040;28;20075;-72
2022/11/15 03:50:57;;;;;;;12.35;6.32;;;;;;;15.21;99.44;101514.81;2095968;28;20076;-73
2022/11/15 03:52:41;;;;;;;13.38;6.07;;;;;;;15.30;98.86;101506.88;2104492;28;20138;-72
2022/11/15 03:54:22;;;;;;;10.23;5.60;;;;;;;15.36;98.57;101514.91;2096013;28;20067;-72
2022/11/15 03:56:03;;;;;;;11.30;6.50;;;;;;;15.41;98.39;101514.97;2095897;28;20139;-72
2022/11/15 03:57:44;;;;;;;13.35;6.18;;;;;;;15.43;98.32;101515.84;2095677;28;20040;-72
2022/11/15 03:59:25;;;;;;;10.40;5.57;;;;;;;15.42;98.42;101522.97;2095790;28;20045;-72
2022/11/15 04:01:06;;;;;;;13.70;6.22;;;;;;;15.46;98.31;101519.44;2111459;28;20557;-72
2022/11/15 04:02:47;;;;;;;10.02;6.68;;;;;;;15.52;98.58;101522.19;2104133;28;20483;-72
2022/11/15 04:04:28;;;;;;;10.05;6.15;;;;;;;15.57;99.22;101526.63;2112190;28;20036;-73
2022/11/15 04:06:09;;;;;;;13.65;6.80;;;;;;;15.60;100.00;101524.91;2095110;28;20056;-72
2022/11/15 04:07:52;;;;;;;15.52;10.32;;;;;;;15.65;100.00;101527.59;2103863;28;20512;-72
2022/11/15 04:09:33;;;;;;;18.33;8.80;;;;;;;15.65;100.00;101525.81;2095625;28;20369;-72
2022/11/15 04:11:13;;;;;;;15.40;8.30;;;;;;;15.61;100.00;101523.13;2095686;28;20041;-72
2022/11/15 04:12:54;;;;;;;10.82;6.78;;;;;;;15.55;100.00;101524.00;2108447;28;20056;-72
2022/11/15 04:14:35;;;;;;;19.48;8.35;;;;;;;15.50;100.00;101526.56;2104151;28;20044;-72
2022/11/15 04:16:16;;;;;;;14.68;6.47;;;;;;;15.46;100.00;101522.09;2095218;28;20091;-72
2022/11/15 04:17:58;;;;;;;15.13;6.80;;;;;;;15.45;100.00;101533.63;2095443;28;20047;-72
2022/11/15 04:25:36;;;;;;;11.18;5.85;;;;;;;15.66;98.56;101518.72;2112211;28;20040;-72
2022/11/15 04:27:17;;;;;;;10.73;4.68;;;;;;;15.70;97.35;101518.75;2095783;28;20044;-72
2022/11/15 04:30:56;;;;;;;11.88;5.22;;;;;;;15.75;96.22;101522.31;2102802;28;20068;-72
2022/11/15 04:32:37;;;;;;;13.60;5.22;;;;;;;15.77;95.86;101520.56;2104086;28;20807;-73
2022/11/15 04:34:18;;;;;;;14.18;7.13;;;;;;;15.77;95.84;101520.56;2104102;28;20048;-73
2022/11/15 04:37:58;;;;;;;11.63;4.82;;;;;;;15.86;93.97;101520.66;2103964;28;20058;-73
2022/11/15 04:39:39;;;;;;;11.57;6.07;;;;;;;15.88;93.27;101515.34;2112722;28;20042;-72
2022/11/15 04:41:20;;;;;;;14.07;5.38;;;;;;;15.90;92.72;101511.78;2104128;28;20289;-72
2022/11/15 04:43:01;;;;;;;12.80;5.15;;;;;;;15.91;92.00;101507.34;2103802;28;20113;-73
2022/11/15 04:44:42;;;;;;;9.15;5.28;;;;;;;15.93;91.76;101519.81;2103764;28;20051;-73
2022/11/15 04:46:23;;;;;;;13.32;5.28;;;;;;;15.94;91.36;101520.69;2103917;28;20048;-72
2022/11/15 04:48:04;;;;;;;9.43;4.85;;;;;;;15.94;91.35;101513.59;2095874;28;20049;-72
2022/11/15 04:49:45;;;;;;;10.55;5.55;;;;;;;15.91;91.79;101518.00;2103849;28;20451;-72
2022/11/15 04:51:26;;;;;;;10.55;4.60;;;;;;;15.84;92.35;101518.84;2103733;28;20555;-73
2022/11/15 04:53:07;;;;;;;10.38;5.47;;;;;;;15.79;93.21;101523.25;2104289;28;20048;-73
2022/11/15 04:54:49;;;;;;;13.43;5.45;;;;;;;15.72;94.26;101524.09;2095911;28;20135;-73
2022/11/15 04:56:29;;;;;;;11.90;5.28;;;;;;;15.63;95.00;101532.91;2095900;28;20051;-72
2022/11/15 04:58:10;;;;;;;11.85;5.38;;;;;;;15.58;95.01;101529.31;2103516;28;20079;-73
2022/11/15 04:59:52;;;;;;;12.02;5.70;;;;;;;15.52;95.16;101530.16;2102764;28;20161;-72
2022/11/15 05:01:33;;;;;;;8.65;4.38;;;;;;;15.48;95.49;101519.47;2105906;28;20467;-72
2022/11/15 05:05:11;;;;;;;10.70;4.80;;;;;;;15.47;94.82;101523.00;2112056;28;20094;-72
2022/11/15 05:06:52;;;;;;;10.38;4.60;;;;;;;15.50;95.08;101526.56;2103940;28;20056;-72
2022/11/15 05:08:33;;;;;;;10.55;5.00;;;;;;;15.52;94.68;101531.91;2111922;28;20048;-72
2022/11/15 05:10:16;;;;;;;10.90;6.35;;;;;;;15.54;94.40;101544.38;2103831;28;20044;-72
2022/11/15 05:11:57;;;;;;;13.45;8.32;;;;;;;15.56;93.92;101533.72;2112506;28;20186;-72
2022/11/15 05:13:37;;;;;;;8.00;4.32;;;;;;;15.65;93.32;101532.91;2095615;28;20114;-72
2022/11/15 05:15:18;;;;;;;16.85;6.32;;;;;;;15.76;92.43;101537.44;2098026;28;20143;-72
2022/11/15 05:16:59;;;;;;;10.07;5.95;;;;;;;15.87;91.71;101537.53;2112084;28;20047;-72
2022/11/15 05:18:41;;;;;;;13.32;5.55;;;;;;;15.94;91.55;101529.59;2113669;28;20069;-72
2022/11/15 05:20:22;;;;;;;12.35;5.40;;;;;;;16.01;91.60;101534.94;2106060;28;20711;-72
2022/11/15 05:22:03;;;;;;;13.35;5.90;;;;;;;16.08;91.89;101536.75;2105411;28;20056;-72
2022/11/15 05:23:43;;;;;;;12.45;6.07;;;;;;;16.15;92.41;101533.22;2105243;28;20070;-72
2022/11/15 05:25:26;;;;;;;10.10;5.63;;;;;;;16.21;92.91;101533.28;2105191;28;20536;-72
2022/11/15 05:27:07;;;;;;;14.45;5.47;;;;;;;16.25;93.53;101537.72;2105013;28;20055;-71
2022/11/15 05:28:48;;;;;;;13.82;6.97;;;;;;;16.25;94.29;101546.59;2096664;28;20214;-72
2022/11/15 05:30:29;;;;;;;14.48;7.57;;;;;;;16.27;94.60;101546.63;2105211;28;20048;-72
2022/11/15 05:32:10;;;;;;;13.85;7.07;;;;;;;16.29;94.79;101548.41;2097115;28;20052;-72
2022/11/15 05:33:52;;;;;;;12.02;4.88;;;;;;;16.30;95.43;101543.97;2096480;28;20111;-72
2022/11/15 05:35:39;;;;;;;11.02;5.55;;;;;;;16.33;96.28;101546.66;2099921;28;20055;-72
2022/11/15 05:37:20;;;;;;;9.73;4.70;;;;;;;16.36;97.01;101543.97;2104214;28;20055;-72
2022/11/15 05:39:02;;;;;;;11.02;4.80;;;;;;;16.38;97.51;101552.00;2105378;28;20480;-72
2022/11/15 05:40:44;;;;;;;13.85;4.90;;;;;;;16.37;97.69;101556.44;2105098;28;20426;-72
2022/11/15 05:42:28;;;;;;;10.30;5.18;;;;;;;16.32;98.07;101552.88;2113965;28;20048;-71
2022/11/15 05:44:12;;;;;;;11.45;5.55;;;;;;;16.25;98.37;101561.69;2105214;28;20488;-72
2022/11/15 05:45:53;;;;;;;9.55;5.30;;;;;;;16.17;98.49;101559.00;2104143;28;20050;-72
2022/11/15 05:47:37;;;;;;;9.93;4.50;;;;;;;16.18;98.87;101568.78;2104944;28;20055;-71
2022/11/15 05:49:23;;;;;;;13.65;4.95;;;;;;;16.27;99.25;101566.16;2105221;28;20048;-72
2022/11/15 05:51:06;;;;;;;12.15;5.63;;;;;;;16.38;98.13;101570.66;2105501;28;20052;-72
2022/11/15 05:52:48;;;;;;;10.98;4.85;;;;;;;16.63;96.95;101569.91;2105196;28;20048;-72
2022/11/15 05:54:29;;;;;;;8.27;3.97;;;;;;;16.96;95.66;101558.44;2104191;28;20435;-72
2022/11/15 05:56:11;;;;;;;10.25;4.60;;;;;;;17.34;94.02;101569.16;2105043;28;20450;-71
2022/11/15 05:57:52;;;;;;;;;;;;;;;17.60;93.02;101569.16;2099559;28;20041;-71
2022/11/15 05:59:34;;;;;;;11.35;4.78;;;;;;;17.88;92.91;101566.53;2096870;28;19920;-72
2022/11/15 06:01:15;;;;;;;9.27;4.10;;;;;;;18.10;91.35;101572.72;2110571;28;20042;-72
2022/11/15 06:02:56;;;;;;;6.28;3.75;;;;;;;18.25;89.33;101566.44;2105086;28;20048;-73
2022/11/15 06:04:37;;;;;;;6.88;3.70;;;;;;;18.30;85.99;101565.53;2104929;28;20510;-73
2022/11/15 06:06:18;;;;;;;9.52;3.85;;;;;;;18.31;84.60;101561.94;2105141;28;20611;-72
2022/11/15 06:07:59;;;;;;;8.65;3.55;;;;;;;18.32;82.95;101566.41;2103760;28;20056;-73
2022/11/15 06:09:40;;;;;;;7.40;3.40;;;;;;;18.30;82.05;101570.91;2088639;28;20044;-72
2022/11/15 06:11:23;;;;;;;8.25;3.10;;;;;;;18.29;80.79;101561.09;2096625;28;20056;-73
2022/11/15 06:13:04;;;;;;;;;;;;;;;18.24;80.81;101568.25;2104043;28;20056;-72
2022/11/15 06:14:45;;;;;;;7.80;3.47;;;;;;;18.20;81.19;101569.13;2104700;28;19971;-72
2022/11/15 06:16:26;;;;;;;8.65;2.83;;;;;;;18.18;81.57;101567.38;2113406;28;20039;-72
2022/11/15 06:18:07;;;;;;;6.80;3.00;;;;;;;18.32;82.26;101566.41;2105053;28;20566;-72
2022/11/15 06:19:48;;;;;;;9.43;3.50;;;;;;;18.49;81.85;101577.06;2104801;28;20040;-72
2022/11/15 06:21:29;;;;;;;7.53;3.05;;;;;;;18.51;80.86;101575.25;2096663;28;20041;-72
2022/11/15 06:23:10;;;;;;;10.27;3.33;;;;;;;18.45;80.30;101569.94;2097148;28;20135;-72
2022/11/15 06:24:51;;;;;;;10.38;2.92;;;;;;;18.41;80.35;101576.19;2096522;28;20378;-72
2022/11/15 06:26:34;;;;;;;8.05;2.72;;;;;;;18.46;80.19;101576.16;2104520;28;20136;-72
2022/11/15 06:28:15;;;;;;;12.52;5.18;;;;;;;18.63;80.60;101579.72;2104733;28;20079;-71
2022/11/15 06:29:56;;;;;;;8.95;4.07;;;;;;;18.81;80.29;101578.72;2103543;28;20561;-72
2022/11/15 06:31:37;;;;;;;10.48;5.72;;;;;;;18.87;80.27;101589.41;2102334;28;20043;-72
2022/11/15 06:33:17;;;;;;;10.13;6.60;;;;;;;18.85;80.05;101593.84;2098915;28;20136;-72
2022/11/15 06:34:58;;;;;;;7.93;4.50;;;;;;;18.78;79.38;101590.31;2111160;28;20039;-72
2022/11/15 06:36:39;;;;;;;10.75;3.85;;;;;;;18.71;79.41;101586.78;2104659;28;20048;-72
2022/11/15 06:38:20;;;;;;;10.65;3.85;;;;;;;18.57;79.67;101587.78;2105237;28;20448;-71
2022/11/15 06:40:01;;;;;;;5.75;3.08;;;;;;;18.36;79.73;101579.78;2102650;28;20078;-72
2022/11/15 06:41:44;;;;;;;10.52;3.17;;;;;;;18.24;80.20;101596.75;2104926;28;20487;-72
2022/11/15 06:43:25;;;;;;;9.10;3.38;;;;;;;18.19;81.45;101591.41;2104937;28;20075;-72
2022/11/15 06:45:07;;;;;;;10.65;3.75;;;;;;;18.22;82.44;101594.06;2104873;28;20048;-72
2022/11/15 06:46:48;;;;;;;8.15;4.25;;;;;;;18.24;83.18;101588.75;2104924;28;20047;-72
2022/11/15 06:48:29;;;;;;;7.43;3.28;;;;;;;18.46;83.50;101587.75;2101899;28;20046;-72
2022/11/15 06:50:11;;;;;;;11.18;3.58;;;;;;;18.74;81.76;101585.00;2109757;28;20044;-71
2022/11/15 06:51:51;;;;;;;9.45;3.45;;;;;;;18.86;80.00;101587.63;2098828;28;20807;-72
2022/11/15 06:53:33;;;;;;;7.78;2.92;;;;;;;18.82;78.40;101585.88;2104817;28;20078;-72
2022/11/15 06:55:14;;;;;;;8.73;3.83;;;;;;;18.74;77.95;101582.34;2097026;28;20433;-72
2022/11/15 06:56:57;;;;;;;8.27;3.50;;;;;;;18.65;77.05;101588.59;2110601;28;20078;-72
2022/11/15 06:58:38;;;;;;;6.35;3.30;;;;;;;18.67;76.86;101579.69;2103600;28;20075;-73
2022/11/15 07:00:20;;;;;;;8.65;2.35;;;;;;;18.74;75.82;101569.84;2107476;28;20492;-72
2022/11/15 07:02:01;;;;;;;;;;;;;;;18.70;74.90;101577.03;2112037;28;20047;-72
2022/11/15 07:03:43;;;;;;;8.73;3.15;;;;;;;18.66;74.88;101577.00;2099433;28;19924;-72
2022/11/15 07:05:24;;;;;;;7.80;3.10;;;;;;;18.66;73.99;101579.69;2101784;28;20040;-73
2022/11/15 07:07:05;;;;;;;5.20;3.08;;;;;;;18.68;73.78;101575.22;2106577;28;20093;-73
2022/11/15 07:08:45;;;;;;;8.93;3.35;;;;;;;18.79;73.74;101585.88;2104629;28;20056;-73
2022/11/15 07:10:27;;;;;;;6.65;3.00;;;;;;;18.97;74.57;101586.66;2110548;28;20032;-73
2022/11/15 07:12:09;;;;;;;5.60;2.72;;;;;;;19.06;74.48;101575.91;2104260;28;20078;-73
2022/11/15 07:13:50;;;;;;;8.38;2.95;;;;;;;19.05;74.31;101587.50;2104174;28;20117;-73
2022/11/15 07:15:31;;;;;;;7.68;3.22;;;;;;;19.05;74.78;101583.94;2103786;28;20048;-72
2022/11/15 07:17:12;;;;;;;10.95;3.28;;;;;;;19.02;75.06;101582.19;2098408;28;20076;-73
2022/11/15 07:18:53;;;;;;;10.13;3.72;;;;;;;18.96;76.27;101578.66;2109507;28;20048;-73
2022/11/15 07:20:34;;;;;;;9.23;3.08;;;;;;;18.93;77.45;101584.00;2104769;28;20037;-74
2022/11/15 07:22:15;;;;;;;8.98;3.10;;;;;;;18.91;77.62;101575.09;2112815;28;20079;-74
2022/11/15 07:23:56;;;;;;;7.53;3.17;;;;;;;18.94;77.98;101577.78;2104456;28;20048;-73
2022/11/15 07:25:38;;;;;;;6.57;2.67;;;;;;;19.07;78.62;101580.38;2104059;28;20104;-72
2022/11/15 07:27:20;;;;;;;7.90;3.03;;;;;;;19.30;79.60;101579.31;2118474;27;20051;-72
2022/11/15 07:29:01;;;;;;;6.53;2.85;;;;;;;19.38;80.10;101572.13;2104866;28;20074;-72
2022/11/15 07:30:42;;;;;;;8.27;3.53;;;;;;;19.31;80.05;101575.72;2104410;28;20726;-72
2022/11/15 07:32:23;;;;;;;9.13;3.58;;;;;;;19.20;80.39;101575.81;2102414;28;20051;-73
2022/11/15 07:34:04;;;;;;;8.60;3.13;;;;;;;19.10;80.45;101583.00;2110878;28;20047;-73
2022/11/15 07:35:46;;;;;;;8.50;2.70;;;;;;;19.03;81.44;101588.44;2104642;28;20067;-72
2022/11/15 07:37:27;;;;;;;9.85;3.15;;;;;;;19.01;82.47;101588.44;2107129;28;20040;-73
2022/11/15 07:39:08;;;;;;;6.72;2.63;;;;;;;19.01;81.92;101577.72;2109728;28;20044;-73
2022/11/15 07:40:56;;;;;;;12.52;4.07;;;;;;;18.99;80.66;101584.88;2104255;28;20056;-72
2022/11/15 07:42:53;;;;;;;9.38;3.42;;;;;;;18.97;79.50;101589.34;2103192;28;20044;-72
2022/11/15 07:44:34;;;;;;;9.90;3.40;;;;;;;18.98;78.98;101588.44;2105319;28;20047;-72
2022/11/15 07:46:15;;;;;;;13.90;3.00;;;;;;;18.98;78.59;101595.56;2095908;28;20091;-72
2022/11/15 07:47:56;;;;;;;7.03;2.85;;;;;;;19.02;78.53;101584.88;2104295;28;20059;-72
2022/11/15 07:49:37;;;;;;;6.07;2.97;;;;;;;19.20;78.18;101593.66;2098606;28;20052;-72
2022/11/15 07:51:19;;;;;;;10.27;3.22;;;;;;;19.47;77.72;101594.41;2110587;28;20150;-72
2022/11/15 07:53:01;;;;;;;7.65;3.50;;;;;;;19.66;76.57;101592.47;2095925;28;20167;-72
2022/11/15 07:54:41;;;;;;;11.40;3.33;;;;;;;19.68;75.41;101582.63;2112170;28;20044;-73
2022/11/15 07:56:22;;;;;;;8.57;2.97;;;;;;;19.64;75.06;101596.03;2105033;28;20054;-72
2022/11/15 07:58:06;;;;;;;8.95;3.00;;;;;;;19.55;74.79;101590.78;2100495;28;20044;-72
2022/11/15 07:59:47;;;;;;;8.10;2.80;;;;;;;19.41;74.88;101599.78;2111726;28;20043;-72
2022/11/15 08:01:27;;;;;;;10.85;3.13;;;;;;;19.30;75.26;101601.63;2102757;28;20040;-72
2022/11/15 08:03:09;;;;;;;7.70;3.30;;;;;;;19.18;75.15;101601.72;2098313;28;20055;-73
2022/11/15 08:04:50;;;;;;;6.68;2.80;;;;;;;19.24;75.48;101601.66;2104560;28;20079;-73
2022/11/15 08:06:31;;;;;;;5.40;2.60;;;;;;;19.62;75.72;101604.13;2112301;28;20047;-72
2022/11/15 08:08:12;;;;;;;9.98;2.70;;;;;;;19.79;73.53;101595.94;2112439;28;20457;-72
2022/11/15 08:09:54;;;;;;;8.15;3.20;;;;;;;19.91;72.36;101595.81;2112716;28;20090;-73
2022/11/15 08:11:34;;;;;;;6.67;2.90;;;;;;;19.92;72.15;101607.41;2111001;28;20072;-72